Time;durP1;ratioP1;P1;durP2;ratioP2;P2;SDS_P1;SDS_P2;PMS_P1;PMS_P2;Temp;Humidity;BMP_temperature;BMP_pressure;BME280_temperature;BME280_humidity;BME280_pressure;Samples;Min_cycle;Max_cycle;Signal;HPM_P1;HPM_P2
2023/03/08 00:00:07;;;;;;;3.92;2.50;;;-0.60;99.90;;;;;;5052222;28;20056;-71
2023/03/08 00:02:32;;;;;;;2.97;2.05;;;-0.60;99.90;;;;;;5078865;28;20041;-68
2023/03/08 00:04:58;;;;;;;2.95;2.60;;;-0.60;99.90;;;;;;5044194;28;20048;-69
2023/03/08 00:07:24;;;;;;;4.13;2.30;;;-0.60;99.90;;;;;;5070285;28;20068;-69
2023/03/08 00:09:49;;;;;;;3.80;2.40;;;-0.60;99.90;;;;;;5039773;28;20345;-69
2023/03/08 00:12:18;;;;;;;2.80;2.33;;;-0.60;99.90;;;;;;5049550;28;20113;-70
2023/03/08 00:14:44;;;;;;;3.30;2.53;;;-0.60;99.90;;;;;;5045470;28;21597;-71
2023/03/08 00:17:11;;;;;;;3.20;2.33;;;-0.60;99.90;;;;;;5040422;28;20060;-69
2023/03/08 00:19:37;;;;;;;4.18;2.28;;;-0.60;99.90;;;;;;5048465;28;20400;-72
2023/03/08 00:22:03;;;;;;;4.72;2.47;;;-0.70;99.90;;;;;;5045618;28;20072;-68
2023/03/08 00:24:29;;;;;;;4.18;2.20;;;-0.60;99.90;;;;;;5041174;28;20041;-70
2023/03/08 00:26:55;;;;;;;3.92;2.80;;;-0.70;99.90;;;;;;5047191;28;20060;-71
2023/03/08 00:29:21;;;;;;;3.97;2.42;;;-0.60;99.90;;;;;;5043441;28;20827;-71
2023/03/08 00:31:47;;;;;;;5.03;2.50;;;-0.60;99.90;;;;;;5036002;28;20048;-69
2023/03/08 00:34:13;;;;;;;5.32;2.65;;;-0.60;99.90;;;;;;5052293;28;20052;-70
2023/03/08 00:36:39;;;;;;;6.43;2.28;;;-0.60;99.90;;;;;;5042656;28;20377;-70
2023/03/08 00:39:05;;;;;;;2.88;2.22;;;-0.50;99.90;;;;;;5048496;28;20045;-71
2023/03/08 00:41:30;;;;;;;3.80;2.65;;;-0.50;99.90;;;;;;5049154;28;20041;-71
2023/03/08 00:43:56;;;;;;;4.38;2.60;;;-0.50;99.90;;;;;;5050573;28;20048;-71
2023/03/08 00:46:24;;;;;;;5.18;3.10;;;-0.50;99.90;;;;;;5044849;28;20045;-72
2023/03/08 00:48:49;;;;;;;4.90;2.40;;;-0.50;99.90;;;;;;5037051;28;20041;-68
2023/03/08 00:51:16;;;;;;;4.53;2.90;;;-0.50;99.90;;;;;;5041995;28;20037;-72
2023/03/08 00:53:42;;;;;;;7.18;2.50;;;-0.40;99.90;;;;;;5043966;28;20147;-68
2023/03/08 00:56:08;;;;;;;5.80;2.80;;;-0.50;99.90;;;;;;5036643;28;20068;-71
2023/03/08 00:58:36;;;;;;;7.82;2.85;;;-0.50;99.90;;;;;;5045002;28;20041;-70
2023/03/08 01:01:02;;;;;;;5.20;3.03;;;-0.50;99.90;;;;;;5038229;28;20126;-70
2023/03/08 01:03:28;;;;;;;5.50;3.55;;;-0.50;99.90;;;;;;5042064;28;20183;-71
2023/03/08 01:05:56;;;;;;;6.72;3.80;;;-0.60;99.90;;;;;;5042162;28;20041;-69
2023/03/08 01:08:23;;;;;;;6.88;4.68;;;-0.60;99.90;;;;;;5048924;28;20044;-70
2023/03/08 01:10:51;;;;;;;6.18;4.43;;;-0.60;99.90;;;;;;5050026;28;20055;-70
2023/03/08 01:13:18;;;;;;;9.40;5.60;;;-0.70;99.90;;;;;;5028945;28;20053;-68
2023/03/08 01:15:43;;;;;;;8.65;6.25;;;-0.70;99.90;;;;;;5065125;28;20041;-70
2023/03/08 01:18:09;;;;;;;7.82;5.35;;;-0.60;99.90;;;;;;5044018;28;20965;-68
2023/03/08 01:20:34;;;;;;;13.88;6.22;;;-0.70;99.90;;;;;;5038133;28;20041;-68
2023/03/08 01:23:00;;;;;;;9.57;5.95;;;-0.70;99.90;;;;;;5047539;28;20072;-68
2023/03/08 01:28:10;;;;;;;7.00;5.50;;;-0.80;99.90;;;;;;5068680;28;20048;-68
2023/03/08 01:30:36;;;;;;;8.90;6.07;;;-0.80;99.90;;;;;;5074121;28;20029;-71
2023/03/08 01:33:07;;;;;;;7.45;6.28;;;-0.80;99.90;;;;;;5023459;28;20566;-69
2023/03/08 01:35:33;;;;;;;9.70;6.55;;;-0.80;99.90;;;;;;5049555;28;20049;-69
2023/03/08 01:37:59;;;;;;;8.77;6.30;;;-0.80;99.90;;;;;;5046930;28;20198;-70
2023/03/08 01:40:24;;;;;;;12.05;6.60;;;-0.80;99.90;;;;;;5049553;28;20047;-71
2023/03/08 01:42:50;;;;;;;11.65;7.00;;;-0.80;99.90;;;;;;5042221;28;20053;-69
2023/03/08 01:45:53;;;;;;;8.50;6.32;;;-0.80;99.90;;;;;;5040353;28;20092;-70
2023/03/08 01:48:26;;;;;;;11.02;7.68;;;-0.80;99.90;;;;;;5045887;28;20049;-70
2023/03/08 01:50:52;;;;;;;8.30;6.50;;;-0.90;99.90;;;;;;5045901;28;20033;-69
2023/03/08 01:53:18;;;;;;;10.98;7.28;;;-0.90;99.90;;;;;;5041521;28;20071;-71
2023/03/08 01:55:43;;;;;;;9.85;6.93;;;-0.90;99.90;;;;;;5067073;28;20500;-70
2023/03/08 01:58:09;;;;;;;10.73;7.50;;;-0.90;99.90;;;;;;5032970;28;20048;-71
2023/03/08 02:00:37;;;;;;;10.15;7.00;;;-0.90;99.90;;;;;;5048557;28;20057;-69
2023/03/08 02:03:07;;;;;;;9.75;7.60;;;-0.90;99.90;;;;;;5030120;28;20547;-72
2023/03/08 02:05:36;;;;;;;10.73;8.15;;;-0.90;99.90;;;;;;5046334;28;20064;-70
2023/03/08 02:08:01;;;;;;;9.60;6.88;;;-0.90;99.90;;;;;;5048861;28;20048;-69
2023/03/08 02:10:27;;;;;;;7.90;6.35;;;-0.90;99.90;;;;;;5048281;28;20482;-71
2023/03/08 02:12:54;;;;;;;8.48;6.30;;;-0.80;99.90;;;;;;5047705;28;20051;-72
2023/03/08 02:15:20;;;;;;;10.73;6.85;;;-0.90;99.90;;;;;;5049104;28;21341;-69
2023/03/08 02:17:46;;;;;;;9.43;6.50;;;-0.90;99.90;;;;;;5050175;28;20044;-70
2023/03/08 02:20:26;;;;;;;11.43;6.90;;;-0.80;99.90;;;;;;5045163;28;20041;-70
2023/03/08 02:22:52;;;;;;;10.10;6.20;;;-0.90;99.90;;;;;;5047876;28;20072;-70
2023/03/08 02:25:24;;;;;;;9.93;6.13;;;-0.90;99.90;;;;;;5047763;28;20068;-68
2023/03/08 02:27:51;;;;;;;8.65;5.78;;;-0.80;99.90;;;;;;5048924;28;20051;-69
2023/03/08 02:30:24;;;;;;;8.10;5.80;;;-0.80;99.90;;;;;;5048522;28;20048;-71
2023/03/08 02:32:49;;;;;;;11.35;6.18;;;-0.80;99.90;;;;;;5047455;28;20044;-71
2023/03/08 02:35:16;;;;;;;9.00;6.00;;;-0.80;99.90;;;;;;5046826;28;20451;-68
2023/03/08 02:37:41;;;;;;;8.27;5.75;;;-0.90;99.90;;;;;;5031182;28;20037;-71
2023/03/08 02:40:08;;;;;;;7.03;5.43;;;-0.90;99.90;;;;;;5049051;28;20079;-69
2023/03/08 02:42:34;;;;;;;11.30;5.88;;;-0.90;99.90;;;;;;5079234;28;20045;-69
2023/03/08 02:44:59;;;;;;;8.38;5.55;;;-0.90;99.90;;;;;;5048595;28;20059;-70
2023/03/08 02:47:25;;;;;;;8.27;5.95;;;-0.90;99.90;;;;;;5030141;28;20491;-70
2023/03/08 02:49:50;;;;;;;9.98;6.13;;;-1.00;99.90;;;;;;5048738;28;20116;-69
2023/03/08 02:52:16;;;;;;;8.13;5.53;;;-0.90;99.90;;;;;;5047207;28;20041;-68
2023/03/08 02:54:42;;;;;;;9.15;4.93;;;-0.90;99.90;;;;;;5047153;28;20617;-69
2023/03/08 02:57:07;;;;;;;7.88;5.35;;;-0.90;99.90;;;;;;5049230;28;21641;-69
2023/03/08 02:59:33;;;;;;;6.72;5.30;;;-0.80;99.90;;;;;;5052585;28;20056;-69
2023/03/08 03:01:59;;;;;;;6.38;5.10;;;-0.80;99.90;;;;;;5050894;28;20483;-70
2023/03/08 03:04:29;;;;;;;10.65;5.38;;;-0.80;99.90;;;;;;5051150;28;20498;-71
2023/03/08 03:06:54;;;;;;;10.80;5.40;;;-0.80;99.90;;;;;;5035224;28;20423;-69
2023/03/08 03:09:20;;;;;;;10.32;5.30;;;-0.80;99.90;;;;;;5048989;28;20055;-69
2023/03/08 03:11:45;;;;;;;10.35;5.22;;;-0.80;99.90;;;;;;5051228;28;20099;-71
2023/03/08 03:14:11;;;;;;;8.00;4.88;;;-0.80;99.90;;;;;;5051904;28;20032;-69
2023/03/08 03:16:37;;;;;;;7.07;4.78;;;-0.80;99.90;;;;;;5034875;28;20037;-70
2023/03/08 03:19:03;;;;;;;6.43;4.60;;;-0.90;99.90;;;;;;5050361;28;20033;-71
2023/03/08 03:21:28;;;;;;;9.82;5.03;;;-0.90;99.90;;;;;;5033855;28;20068;-70
2023/03/08 03:23:54;;;;;;;12.30;5.40;;;-0.90;99.90;;;;;;5050643;28;20068;-70
2023/03/08 03:26:21;;;;;;;10.10;4.93;;;-0.90;99.90;;;;;;5053568;28;20029;-72
2023/03/08 03:28:47;;;;;;;5.68;4.70;;;-1.00;99.90;;;;;;5051383;28;20417;-70
2023/03/08 03:31:18;;;;;;;6.60;4.70;;;-1.00;99.90;;;;;;5053554;28;20043;-70
2023/03/08 03:33:44;;;;;;;7.97;4.78;;;-1.10;99.90;;;;;;5052140;28;20069;-71
2023/03/08 03:36:14;;;;;;;7.00;4.70;;;-1.00;99.90;;;;;;5052172;28;20044;-71
2023/03/08 03:38:40;;;;;;;7.38;4.60;;;-1.00;99.90;;;;;;5053809;28;20049;-68
2023/03/08 03:41:09;;;;;;;6.32;4.75;;;-0.90;99.90;;;;;;5048764;28;20384;-68
2023/03/08 03:43:35;;;;;;;9.55;4.60;;;-0.90;99.90;;;;;;5051304;28;20450;-68
2023/03/08 03:46:03;;;;;;;5.75;4.50;;;-0.90;99.90;;;;;;5048564;28;20037;-69
2023/03/08 03:48:29;;;;;;;6.75;4.05;;;-0.90;99.90;;;;;;5049173;28;20041;-70
2023/03/08 03:51:00;;;;;;;6.78;4.65;;;-0.90;99.90;;;;;;5051332;28;21542;-69
2023/03/08 03:53:27;;;;;;;6.78;4.60;;;-1.00;99.90;;;;;;5051309;28;20045;-68
2023/03/08 03:55:53;;;;;;;7.45;4.10;;;-1.00;99.90;;;;;;5034776;28;20048;-72
2023/03/08 03:58:19;;;;;;;10.07;4.30;;;-1.10;99.90;;;;;;5051273;28;20067;-68
2023/03/08 04:00:44;;;;;;;10.00;5.60;;;-1.10;99.90;;;;;;5034997;28;20057;-71
2023/03/08 04:03:10;;;;;;;8.35;4.93;;;-1.20;99.90;;;;;;5051214;28;20084;-67
2023/03/08 04:05:36;;;;;;;8.20;4.43;;;-1.20;99.90;;;;;;5050891;28;20099;-69
2023/03/08 04:08:02;;;;;;;7.03;5.18;;;-1.20;99.90;;;;;;5050876;28;21553;-69
2023/03/08 04:10:29;;;;;;;11.95;4.53;;;-1.30;99.90;;;;;;5051193;28;20044;-70
2023/03/08 04:12:55;;;;;;;9.45;5.15;;;-1.30;99.90;;;;;;5051088;28;20049;-68
2023/03/08 04:15:21;;;;;;;7.05;4.88;;;-1.20;99.90;;;;;;5051211;28;20107;-71
2023/03/08 04:17:46;;;;;;;7.45;4.47;;;-1.20;99.90;;;;;;5051064;28;20793;-69
2023/03/08 04:20:13;;;;;;;6.43;4.57;;;-1.20;99.90;;;;;;5050103;28;20037;-71
2023/03/08 04:22:38;;;;;;;8.63;4.50;;;-1.10;99.90;;;;;;5051024;28;20167;-70
2023/03/08 04:25:05;;;;;;;6.63;4.20;;;-1.10;99.90;;;;;;5049380;28;20124;-71
2023/03/08 04:27:30;;;;;;;5.90;4.30;;;-1.10;99.90;;;;;;5050711;28;20044;-69
2023/03/08 04:29:56;;;;;;;6.60;4.35;;;-1.10;99.90;;;;;;5050184;28;20040;-69
2023/03/08 04:32:21;;;;;;;8.90;4.70;;;-1.10;99.90;;;;;;5050968;28;20037;-71
2023/03/08 04:34:47;;;;;;;5.60;4.28;;;-1.10;99.90;;;;;;5050715;28;20052;-69
2023/03/08 04:37:13;;;;;;;8.00;4.72;;;-1.10;99.90;;;;;;5048648;28;20047;-68
2023/03/08 04:39:39;;;;;;;5.57;4.20;;;-1.10;99.90;;;;;;5050671;28;20036;-69
2023/03/08 04:42:06;;;;;;;4.97;3.80;;;-1.10;99.90;;;;;;5050947;28;20507;-68
2023/03/08 04:44:32;;;;;;;6.53;3.85;;;-1.20;99.90;;;;;;5050098;28;20068;-69
2023/03/08 04:46:57;;;;;;;6.25;4.15;;;-1.20;99.90;;;;;;5049139;28;20037;-70
2023/03/08 04:49:24;;;;;;;6.15;4.15;;;-1.20;99.90;;;;;;5051000;28;20087;-71
2023/03/08 04:51:50;;;;;;;6.82;4.30;;;-1.20;99.90;;;;;;5048576;28;20037;-69
2023/03/08 04:54:16;;;;;;;5.47;4.55;;;-1.20;99.90;;;;;;5048700;28;20063;-71
2023/03/08 04:56:42;;;;;;;7.35;4.15;;;-1.20;99.90;;;;;;5049965;28;20044;-70
2023/03/08 04:59:08;;;;;;;8.63;4.05;;;-1.20;99.90;;;;;;5049919;28;20430;-72
2023/03/08 05:01:33;;;;;;;8.10;4.35;;;-1.20;99.90;;;;;;5050026;28;20438;-69
2023/03/08 05:03:59;;;;;;;5.78;4.20;;;-1.20;99.90;;;;;;5050287;28;20408;-71
2023/03/08 05:06:26;;;;;;;5.55;4.05;;;-1.20;99.90;;;;;;5049965;28;20077;-69
2023/03/08 05:08:53;;;;;;;7.05;4.38;;;-1.20;99.90;;;;;;5050051;28;20083;-70
2023/03/08 05:11:23;;;;;;;6.57;4.57;;;-1.20;99.90;;;;;;5050489;28;20395;-69
2023/03/08 05:13:49;;;;;;;7.40;4.40;;;-1.20;99.90;;;;;;5033273;28;20048;-72
2023/03/08 05:16:14;;;;;;;7.00;4.43;;;-1.20;99.90;;;;;;5048246;28;20048;-71
2023/03/08 05:18:40;;;;;;;6.97;4.15;;;-1.20;99.90;;;;;;5046404;28;20048;-70
2023/03/08 05:21:11;;;;;;;7.18;4.50;;;-1.20;99.90;;;;;;5050164;28;20518;-69
2023/03/08 05:23:37;;;;;;;4.75;4.20;;;-1.20;99.90;;;;;;5028510;28;20068;-72
2023/03/08 05:26:04;;;;;;;6.72;4.10;;;-1.20;99.90;;;;;;5036790;28;20468;-69
2023/03/08 05:28:31;;;;;;;6.82;4.18;;;-1.20;99.90;;;;;;5037694;28;20034;-72
2023/03/08 05:31:04;;;;;;;9.18;4.05;;;-1.20;99.90;;;;;;5037526;28;20029;-69
2023/03/08 05:33:30;;;;;;;11.10;4.70;;;-1.20;99.90;;;;;;5064339;28;20428;-71
2023/03/08 05:35:56;;;;;;;7.22;4.20;;;-1.30;99.90;;;;;;5037834;28;20178;-70
2023/03/08 05:38:22;;;;;;;6.35;4.20;;;-1.30;99.90;;;;;;5048520;28;20120;-68
2023/03/08 05:40:49;;;;;;;6.43;4.70;;;-1.20;99.90;;;;;;5049252;28;20037;-70
2023/03/08 05:43:15;;;;;;;7.07;4.43;;;-1.20;99.90;;;;;;5032235;28;20495;-71
2023/03/08 05:45:41;;;;;;;6.60;4.18;;;-1.20;99.90;;;;;;5064996;28;20036;-71
2023/03/08 05:48:07;;;;;;;5.85;4.55;;;-1.20;99.90;;;;;;5049378;28;20043;-68
2023/03/08 05:50:32;;;;;;;6.47;4.57;;;-1.20;99.90;;;;;;5048456;28;20047;-71
2023/03/08 05:52:58;;;;;;;8.10;4.68;;;-1.20;99.90;;;;;;5048675;28;20094;-68
2023/03/08 05:55:24;;;;;;;6.93;4.60;;;-1.30;99.90;;;;;;5033544;28;20052;-72
2023/03/08 05:57:49;;;;;;;8.20;4.65;;;-1.30;99.90;;;;;;5029348;28;20464;-70
2023/03/08 06:00:16;;;;;;;11.73;4.80;;;-1.30;99.90;;;;;;5044983;28;20061;-70
2023/03/08 06:02:41;;;;;;;7.97;4.90;;;-1.30;99.90;;;;;;5046567;28;20043;-70
2023/03/08 06:05:07;;;;;;;6.85;4.63;;;-1.30;99.90;;;;;;5049176;28;20041;-69
2023/03/08 06:07:33;;;;;;;7.50;4.63;;;-1.30;99.90;;;;;;5047706;28;20090;-71
2023/03/08 06:09:59;;;;;;;6.72;4.75;;;-1.30;99.90;;;;;;5049114;28;20033;-69
2023/03/08 06:12:25;;;;;;;9.38;4.75;;;-1.30;99.90;;;;;;5048192;28;20403;-69
2023/03/08 06:14:50;;;;;;;7.50;5.00;;;-1.30;99.90;;;;;;5048088;28;20041;-70
2023/03/08 06:17:16;;;;;;;6.40;4.68;;;-1.30;99.90;;;;;;5030677;28;20056;-70
2023/03/08 06:19:41;;;;;;;6.88;4.60;;;-1.40;99.90;;;;;;5038544;28;20114;-72
2023/03/08 06:22:07;;;;;;;7.80;4.18;;;-1.40;99.90;;;;;;5044842;28;20052;-71
2023/03/08 06:24:33;;;;;;;4.53;4.13;;;-1.40;99.90;;;;;;5036887;28;20166;-68
2023/03/08 06:26:58;;;;;;;6.85;4.45;;;-1.40;99.90;;;;;;5030966;28;20102;-71
2023/03/08 06:29:24;;;;;;;6.65;4.20;;;-1.30;99.90;;;;;;5038539;28;20041;-71
2023/03/08 06:31:50;;;;;;;8.32;4.75;;;-1.30;99.90;;;;;;5043272;28;20111;-70
2023/03/08 06:34:16;;;;;;;8.30;4.85;;;-1.30;99.90;;;;;;5041894;28;20041;-71
2023/03/08 06:36:41;;;;;;;13.00;7.78;;;-1.30;99.90;;;;;;5080413;28;20415;-71
2023/03/08 06:39:08;;;;;;;14.75;8.30;;;-1.20;99.90;;;;;;5039783;28;20098;-69
2023/03/08 06:41:35;;;;;;;18.27;9.70;;;-1.20;99.90;;;;;;5048629;28;20040;-67
2023/03/08 06:44:00;;;;;;;18.70;10.75;;;-1.20;99.90;;;;;;5072869;28;20052;-69
2023/03/08 06:46:26;;;;;;;22.20;11.48;;;-1.20;99.90;;;;;;5032400;28;20412;-70
2023/03/08 06:48:53;;;;;;;22.27;11.55;;;-1.20;99.90;;;;;;5045193;28;20040;-71
2023/03/08 06:51:19;;;;;;;13.57;8.65;;;-1.20;99.90;;;;;;5049485;28;20041;-70
2023/03/08 06:53:46;;;;;;;14.15;7.72;;;-1.20;99.90;;;;;;5045645;28;20044;-70
2023/03/08 06:56:14;;;;;;;16.10;8.38;;;-1.10;99.90;;;;;;5048489;28;20103;-68
2023/03/08 06:58:41;;;;;;;10.63;6.47;;;-1.00;99.90;;;;;;5046187;28;20099;-68
2023/03/08 07:01:08;;;;;;;14.02;7.18;;;-0.90;99.90;;;;;;5045797;28;20504;-71
2023/03/08 07:03:34;;;;;;;10.70;7.38;;;-0.90;99.90;;;;;;5043515;28;20044;-69
2023/03/08 07:06:08;;;;;;;9.73;5.95;;;-0.80;99.90;;;;;;5047580;28;20080;-66
2023/03/08 07:08:36;;;;;;;11.02;7.20;;;-0.70;99.90;;;;;;5045192;28;20065;-70
2023/03/08 07:11:02;;;;;;;14.43;6.35;;;-0.70;99.90;;;;;;5029306;28;20045;-69
2023/03/08 07:13:28;;;;;;;9.23;6.15;;;-0.70;99.90;;;;;;5027501;28;20491;-69
2023/03/08 07:15:54;;;;;;;8.63;5.65;;;-0.70;99.90;;;;;;5032717;28;20057;-69
2023/03/08 07:18:20;;;;;;;8.98;4.70;;;-0.60;99.90;;;;;;5043908;28;20041;-68
2023/03/08 07:20:57;;;;;;;7.47;4.28;;;-0.60;99.90;;;;;;5044541;28;20837;-69
2023/03/08 07:23:23;;;;;;;7.18;4.75;;;-0.60;99.90;;;;;;5061818;28;20049;-70
2023/03/08 07:25:49;;;;;;;8.70;4.75;;;-0.60;99.90;;;;;;5044928;28;20059;-70
2023/03/08 07:28:14;;;;;;;6.28;4.53;;;-0.50;99.90;;;;;;5045828;28;20037;-68
2023/03/08 07:30:46;;;;;;;5.43;4.70;;;-0.50;99.90;;;;;;5046325;28;20036;-67
2023/03/08 07:33:12;;;;;;;6.15;5.38;;;-0.50;99.90;;;;;;5045808;28;20550;-70
2023/03/08 07:35:37;;;;;;;8.27;5.13;;;-0.40;99.90;;;;;;5038559;28;20041;-68
2023/03/08 07:38:03;;;;;;;9.27;5.85;;;-0.40;99.90;;;;;;5046888;28;20047;-67
2023/03/08 07:40:29;;;;;;;8.45;5.38;;;-0.40;99.90;;;;;;5028491;28;20048;-68
2023/03/08 07:42:55;;;;;;;8.63;6.20;;;-0.40;99.90;;;;;;5050032;28;20041;-67
2023/03/08 07:45:21;;;;;;;14.40;10.95;;;-0.30;99.90;;;;;;5032989;28;20060;-70
2023/03/08 07:47:51;;;;;;;11.15;9.70;;;-0.30;99.90;;;;;;5034882;28;20053;-69
2023/03/08 07:50:17;;;;;;;7.25;6.35;;;-0.20;99.90;;;;;;5050147;28;20045;-68
2023/03/08 07:52:43;;;;;;;7.65;6.22;;;-0.20;99.90;;;;;;5050981;28;20496;-70
2023/03/08 07:55:10;;;;;;;8.10;5.90;;;-0.20;99.90;;;;;;5049791;28;21277;-71
2023/03/08 07:57:36;;;;;;;8.63;6.10;;;-0.20;99.90;;;;;;5034756;28;20056;-70
2023/03/08 08:00:06;;;;;;;7.25;6.25;;;-0.20;99.90;;;;;;5048124;28;20045;-71
2023/03/08 08:02:35;;;;;;;10.23;6.35;;;-0.20;99.90;;;;;;5050122;28;20069;-69
2023/03/08 08:05:03;;;;;;;8.65;6.18;;;-0.10;99.90;;;;;;5050161;28;20045;-69
2023/03/08 08:07:30;;;;;;;10.98;5.88;;;-0.10;99.90;;;;;;5050708;28;20534;-68
2023/03/08 08:09:55;;;;;;;9.82;6.15;;;0.00;99.90;;;;;;5050243;28;20512;-67
2023/03/08 08:12:22;;;;;;;7.55;6.15;;;0.00;99.90;;;;;;5047143;28;20032;-69
2023/03/08 08:14:51;;;;;;;9.55;5.97;;;0.00;99.90;;;;;;5053166;28;20045;-68
2023/03/08 08:17:18;;;;;;;8.93;6.53;;;0.00;99.90;;;;;;5050221;28;20499;-70
2023/03/08 08:19:43;;;;;;;9.70;7.30;;;0.00;99.90;;;;;;5045802;28;20049;-70
2023/03/08 08:22:09;;;;;;;9.52;8.07;;;0.00;99.90;;;;;;5041276;28;20052;-69
2023/03/08 08:24:35;;;;;;;19.67;17.73;;;0.10;99.90;;;;;;5043035;28;20388;-67
2023/03/08 08:27:00;;;;;;;13.57;12.27;;;0.10;99.90;;;;;;5034383;28;20045;-70
2023/03/08 08:29:26;;;;;;;9.10;7.85;;;0.10;99.90;;;;;;5049311;28;20186;-68
2023/03/08 08:31:52;;;;;;;10.23;7.78;;;0.10;99.90;;;;;;5043086;28;20139;-69
2023/03/08 08:34:19;;;;;;;11.43;8.40;;;0.10;99.90;;;;;;5048052;28;20412;-69
2023/03/08 08:36:45;;;;;;;12.57;8.93;;;0.00;99.90;;;;;;5051159;28;20373;-70
2023/03/08 08:39:11;;;;;;;13.43;9.02;;;0.00;99.90;;;;;;5046774;28;20037;-67
2023/03/08 08:41:37;;;;;;;11.75;9.00;;;-0.10;99.90;;;;;;5049449;28;20392;-67
2023/03/08 08:44:03;;;;;;;13.35;10.48;;;-0.10;99.90;;;;;;5045243;28;20153;-70
2023/03/08 08:46:29;;;;;;;13.50;10.32;;;-0.10;99.90;;;;;;5045959;28;20045;-69
2023/03/08 08:48:57;;;;;;;13.75;10.30;;;0.00;99.90;;;;;;5050236;28;20080;-68
2023/03/08 08:51:23;;;;;;;16.58;10.23;;;0.00;99.90;;;;;;5048156;28;20044;-69
2023/03/08 08:53:49;;;;;;;14.52;11.38;;;0.10;99.90;;;;;;5033775;28;20049;-69
2023/03/08 08:56:18;;;;;;;14.65;11.63;;;0.10;99.90;;;;;;5047418;28;20036;-68
2023/03/08 08:58:45;;;;;;;16.58;12.68;;;0.10;99.90;;;;;;5046987;28;20045;-69
2023/03/08 09:01:20;;;;;;;19.27;12.70;;;0.20;99.90;;;;;;5048254;28;20100;-67
2023/03/08 09:03:47;;;;;;;16.80;12.98;;;0.20;99.90;;;;;;5049798;28;20527;-69
2023/03/08 09:06:13;;;;;;;16.90;12.95;;;0.20;99.90;;;;;;5049246;28;20049;-70
2023/03/08 09:08:39;;;;;;;19.40;13.15;;;0.30;99.90;;;;;;5049827;28;20087;-67
2023/03/08 09:11:07;;;;;;;16.88;13.23;;;0.30;99.90;;;;;;5029114;28;20752;-69
2023/03/08 09:13:33;;;;;;;18.10;13.57;;;0.40;99.90;;;;;;5079588;28;20048;-71
2023/03/08 09:15:59;;;;;;;19.73;13.60;;;0.50;99.90;;;;;;5049715;28;20483;-71
2023/03/08 09:18:25;;;;;;;18.75;13.52;;;0.50;99.90;;;;;;5049221;28;20136;-68
2023/03/08 09:20:50;;;;;;;16.80;13.65;;;0.60;99.90;;;;;;5049761;28;20044;-67
2023/03/08 09:23:16;;;;;;;18.92;14.00;;;0.80;99.90;;;;;;5047072;28;20429;-69
2023/03/08 09:25:42;;;;;;;19.80;14.70;;;0.80;99.90;;;;;;5049430;28;20068;-68
2023/03/08 09:28:09;;;;;;;18.23;14.27;;;0.90;99.90;;;;;;5050534;28;20041;-67
2023/03/08 09:30:35;;;;;;;16.65;13.48;;;1.00;99.90;;;;;;5049334;28;20033;-66
2023/03/08 09:33:02;;;;;;;17.55;13.40;;;1.00;99.90;;;;;;5047417;28;20037;-66
2023/03/08 09:35:28;;;;;;;16.83;13.00;;;1.10;99.90;;;;;;5049392;28;20044;-68
2023/03/08 09:37:54;;;;;;;15.80;13.25;;;1.20;99.90;;;;;;5029173;28;20466;-66
2023/03/08 09:40:23;;;;;;;15.50;12.57;;;1.30;99.90;;;;;;5045482;28;20388;-71
2023/03/08 09:42:49;;;;;;;17.75;14.43;;;1.40;99.90;;;;;;5048506;28;20563;-69
2023/03/08 09:45:28;;;;;;;19.30;13.43;;;1.50;99.90;;;;;;5049822;28;20090;-69
2023/03/08 09:48:13;;;;;;;16.30;12.73;;;1.60;99.90;;;;;;5048823;28;20037;-68
2023/03/08 09:50:49;;;;;;;15.77;12.85;;;1.60;99.90;;;;;;5048342;28;20045;-71
2023/03/08 09:53:31;;;;;;;19.23;13.23;;;1.70;99.90;;;;;;5030927;28;20128;-69
2023/03/08 09:56:30;;;;;;;17.38;13.85;;;1.80;99.90;;;;;;5032153;28;20120;-69
2023/03/08 09:59:18;;;;;;;17.98;13.57;;;1.90;99.90;;;;;;5049504;28;20045;-68
2023/03/08 10:02:12;;;;;;;16.88;12.63;;;2.00;99.90;;;;;;5047445;28;20052;-69
2023/03/08 10:05:18;;;;;;;15.90;13.48;;;2.00;99.90;;;;;;5046367;28;20041;-69
2023/03/08 10:08:11;;;;;;;17.63;13.68;;;2.00;99.90;;;;;;5048705;28;20044;-68
2023/03/08 10:10:52;;;;;;;;;;;2.00;99.90;;;;;;5048928;28;20040;-68
2023/03/08 10:13:38;;;;;;;17.88;13.63;;;2.00;99.90;;;;;;5048984;28;19916;-67
2023/03/08 10:16:19;;;;;;;23.17;16.08;;;2.20;99.90;;;;;;5049208;28;20116;-69
2023/03/08 10:18:55;;;;;;;17.70;13.73;;;2.30;99.90;;;;;;5049587;28;20044;-66
2023/03/08 10:21:23;;;;;;;16.38;12.88;;;2.40;99.90;;;;;;5047961;28;20041;-66
2023/03/08 10:24:18;;;;;;;18.75;12.75;;;2.60;99.90;;;;;;5048449;28;20111;-70
2023/03/08 10:26:44;;;;;;;17.83;12.98;;;2.80;99.90;;;;;;5043462;28;20057;-68
2023/03/08 10:29:11;;;;;;;17.67;13.57;;;2.90;99.90;;;;;;5048055;28;20033;-70
2023/03/08 10:31:37;;;;;;;16.63;13.35;;;3.00;99.90;;;;;;5044599;28;20040;-66
2023/03/08 10:34:12;;;;;;;17.88;14.13;;;3.10;99.90;;;;;;5047464;28;20060;-68
2023/03/08 10:36:59;;;;;;;18.77;13.65;;;3.30;99.90;;;;;;5036745;28;20129;-67
2023/03/08 10:39:25;;;;;;;17.90;13.50;;;3.30;99.90;;;;;;5047504;28;20040;-69
2023/03/08 10:41:54;;;;;;;16.67;12.60;;;3.50;99.90;;;;;;5045478;28;20048;-71
2023/03/08 10:44:32;;;;;;;17.83;12.45;;;3.60;99.90;;;;;;5031392;28;20053;-69
2023/03/08 10:46:58;;;;;;;15.45;12.18;;;3.70;99.90;;;;;;5044294;28;20496;-70
2023/03/08 10:49:24;;;;;;;18.52;11.75;;;3.70;99.90;;;;;;5049921;28;20040;-66
2023/03/08 10:51:52;;;;;;;15.18;10.77;;;3.80;99.90;;;;;;5047710;28;20040;-68
2023/03/08 10:54:17;;;;;;;14.30;11.40;;;3.70;99.90;;;;;;5030976;28;20076;-69
2023/03/08 10:56:50;;;;;;;14.32;11.25;;;3.70;99.90;;;;;;5045460;28;20107;-70
2023/03/08 10:59:31;;;;;;;14.00;9.80;;;3.70;99.90;;;;;;5081060;28;20088;-69
2023/03/08 11:02:15;;;;;;;11.48;9.10;;;3.80;99.90;;;;;;5044670;28;20519;-69
2023/03/08 11:04:54;;;;;;;10.82;8.50;;;3.80;99.90;;;;;;5048048;28;20388;-66
2023/03/08 11:07:26;;;;;;;14.10;9.63;;;3.80;99.90;;;;;;5045703;28;20048;-67
2023/03/08 11:10:14;;;;;;;13.98;10.18;;;3.80;99.90;;;;;;5047714;28;20057;-68
2023/03/08 11:12:39;;;;;;;12.68;10.10;;;3.80;99.90;;;;;;5031327;28;20515;-70
2023/03/08 11:15:16;;;;;;;15.57;10.20;;;3.90;99.90;;;;;;5029508;28;20049;-69
2023/03/08 11:17:59;;;;;;;13.48;10.27;;;3.90;99.90;;;;;;5050285;28;20102;-68
2023/03/08 11:20:48;;;;;;;19.50;10.40;;;4.00;99.90;;;;;;5067487;28;20047;-68
2023/03/08 11:23:27;;;;;;;13.60;9.93;;;4.00;99.90;;;;;;5050171;28;20067;-67
2023/03/08 11:26:01;;;;;;;12.75;9.35;;;4.00;99.90;;;;;;5050248;28;20488;-69
2023/03/08 11:29:01;;;;;;;12.75;9.30;;;4.00;99.90;;;;;;5050099;28;20043;-67
2023/03/08 11:31:43;;;;;;;15.90;9.45;;;4.00;99.90;;;;;;5034394;28;20056;-69
2023/03/08 11:34:29;;;;;;;9.82;8.35;;;4.10;99.90;;;;;;5049502;28;20128;-66
2023/03/08 11:37:03;;;;;;;12.38;8.73;;;4.10;99.90;;;;;;5051003;28;20041;-70
2023/03/08 11:39:39;;;;;;;14.63;9.57;;;4.20;99.90;;;;;;5032767;28;20052;-68
2023/03/08 11:42:32;;;;;;;15.45;10.02;;;4.30;99.90;;;;;;5033112;28;20128;-68
2023/03/08 11:45:20;;;;;;;14.85;9.07;;;4.40;99.90;;;;;;5033002;28;20032;-69
2023/03/08 11:48:06;;;;;;;12.90;8.48;;;4.50;99.90;;;;;;5034191;28;20086;-68
2023/03/08 11:51:05;;;;;;;13.88;8.80;;;4.50;99.90;;;;;;5032247;28;20108;-69
2023/03/08 11:53:53;;;;;;;10.00;7.25;;;4.60;99.90;;;;;;5033529;28;20036;-69
2023/03/08 11:56:40;;;;;;;10.10;7.45;;;4.60;99.90;;;;;;5032387;28;20055;-70
2023/03/08 11:59:28;;;;;;;10.40;7.70;;;4.60;99.90;;;;;;5029098;28;20175;-67
2023/03/08 12:02:03;;;;;;;10.32;6.72;;;4.50;99.90;;;;;;5030428;28;20174;-68
2023/03/08 12:05:00;;;;;;;10.90;7.35;;;4.40;99.90;;;;;;5032675;28;20595;-67
2023/03/08 12:07:46;;;;;;;11.23;6.93;;;4.40;99.90;;;;;;5037177;28;20063;-66
2023/03/08 12:10:56;;;;;;;11.38;7.80;;;4.40;99.90;;;;;;5050680;28;20407;-69
2023/03/08 12:13:35;;;;;;;10.85;7.38;;;4.30;99.90;;;;;;5033446;28;20045;-71
2023/03/08 12:16:19;;;;;;;9.85;6.80;;;4.30;99.90;;;;;;5032184;28;20056;-68
2023/03/08 12:18:55;;;;;;;10.57;7.15;;;4.30;99.90;;;;;;5049466;28;20041;-67
2023/03/08 12:21:26;;;;;;;11.82;7.03;;;4.30;99.90;;;;;;5033486;28;20052;-69
2023/03/08 12:23:57;;;;;;;10.75;6.80;;;4.30;99.90;;;;;;5049248;28;20048;-70
2023/03/08 12:26:56;;;;;;;11.68;6.72;;;4.30;99.90;;;;;;5030490;28;20071;-69
2023/03/08 12:30:05;;;;;;;13.43;7.57;;;4.40;99.90;;;;;;5019990;28;20045;-67
2023/03/08 12:32:31;;;;;;;11.82;7.35;;;4.40;99.90;;;;;;4970368;28;20101;-67
2023/03/08 12:35:23;;;;;;;13.10;7.22;;;4.50;99.90;;;;;;4974484;28;20054;-69
2023/03/08 12:37:58;;;;;;;11.67;7.33;;;4.50;99.90;;;;;;4956704;28;20591;-69
2023/03/08 12:40:29;;;;;;;10.25;6.78;;;4.50;99.90;;;;;;4964697;28;20054;-68
2023/03/08 12:43:08;;;;;;;9.70;6.07;;;4.50;99.90;;;;;;4974349;28;20057;-68
2023/03/08 12:45:33;;;;;;;8.82;6.85;;;4.50;99.90;;;;;;4972127;28;20139;-71
2023/03/08 12:48:05;;;;;;;10.93;7.10;;;4.50;99.90;;;;;;4984852;28;20049;-69
2023/03/08 12:50:44;;;;;;;11.07;6.90;;;4.50;99.90;;;;;;4991309;28;20053;-70
2023/03/08 12:53:45;;;;;;;11.43;6.85;;;4.50;99.90;;;;;;4993493;28;20042;-70
2023/03/08 12:56:10;;;;;;;12.85;6.75;;;4.60;99.90;;;;;;4954151;28;20458;-67
2023/03/08 12:58:56;;;;;;;12.40;7.53;;;4.60;99.90;;;;;;4956638;28;20137;-70